Radiosonde details



Informationen :

Serial : D26020166
Type : Graw DFM
Frequency : 403.210MHz
Launchsite : -
Nearest town : Wells, US (37.5km)

Altitude (Max) : 32472m at 2026-09-02 00:51:25
Speed (Max) : 124km/h at altitude 13152m

Average speed : 46km/h
Average ascent rate : 5m/s
Average descent rate : -20m/s
Ascent rate (Max) : 8.0m/s
Descent rate (Max): -43.2m/s

First frame :
KE7DJD at 2026-09-01 23:48:13 at altitude 12947m (OG: 12905m)
Last frame :
KE7DJD at 2026-09-02 01:11:27 at altitude 8469m (OG: 8427m)

Flighttime : 1h23m14s
Ascent time : 1h3m12s
Descent time : 20m2s
Uptime : -
Killtimer : -

Distance (Straight line distance): 46km

Distance (Route):


Frames : 231


Measurement :

Temperature : -23.4°C
Humidity : 0%
Pressure : 0hPa


Vertical profile (SkewT) :


Elevation profile :



Receiving stations :


Receiver Frames First received Last received
KE7DJD 231 2026-09-01 23:48:13 2026-09-02 01:11:27

Share per receiver :



All frames :


Receiver Date Latitude Longitude Direction Speed Altitude Climb Temperature Humidity Pressure Voltage Killtimer Uptime BKT XDATA
KE7DJD2026-09-02 01:11:2741.44830-114.9388646°84km/h8469m-11.3m/s-23.4°C0%0hPa0V00:00:0000:00:0000:00:00
KE7DJD2026-09-02 01:11:0641.44510-114.9431247°89km/h8702m-11.2m/s-25.4°C0%0hPa0V00:00:0000:00:0000:00:00
KE7DJD2026-09-02 01:10:4541.44199-114.9477249°89km/h8955m-12.4m/s-27.7°C0%0hPa0V00:00:0000:00:0000:00:00
KE7DJD2026-09-02 01:10:2541.43882-114.9524245°89km/h9210m-12.5m/s-30.0°C0%0hPa0V00:00:0000:00:0000:00:00
KE7DJD2026-09-02 01:10:0441.43534-114.9568646°95km/h9453m-12.7m/s-32.1°C0%0hPa0V00:00:0000:00:0000:00:00
KE7DJD2026-09-02 01:09:4341.43172-114.9621152°104km/h9714m-12.8m/s-33.9°C0%0hPa0V00:00:0000:00:0000:00:00
KE7DJD2026-09-02 01:09:2341.42844-114.9674453°104km/h9970m-13.4m/s-35.5°C0%0hPa0V00:00:0000:00:0000:00:00
KE7DJD2026-09-02 01:09:0341.42500-114.9733751°110km/h10246m-12.8m/s-37.7°C0%0hPa0V00:00:0000:00:0000:00:00
KE7DJD2026-09-02 01:08:4241.42145-114.9796856°110km/h10519m-12.2m/s-40.0°C0%0hPa0V00:00:0000:00:0000:00:00
KE7DJD2026-09-02 01:08:2241.41817-114.9860258°111km/h10786m-13.5m/s-42.2°C0%0hPa0V00:00:0000:00:0000:00:00
KE7DJD2026-09-02 01:08:0141.41527-114.9922457°110km/h11049m-13.7m/s-44.5°C0%0hPa0V00:00:0000:00:0000:00:00
KE7DJD2026-09-02 01:07:4141.41212-114.9989859°113km/h11338m-13.4m/s-46.4°C0%0hPa0V00:00:0000:00:0000:00:00
KE7DJD2026-09-02 01:07:2041.40878-115.0056658°119km/h11610m-13.8m/s-47.1°C0%0hPa0V00:00:0000:00:0000:00:00
KE7DJD2026-09-02 01:07:0041.40517-115.0129261°120km/h11910m-13.7m/s-47.0°C0%0hPa0V00:00:0000:00:0000:00:00
KE7DJD2026-09-02 01:06:1941.39841-115.0262457°117km/h12496m-13.2m/s-46.9°C0%0hPa0V00:00:0000:00:0000:00:00
KE7DJD2026-09-02 01:05:5841.39525-115.0327554°113km/h12767m-11.9m/s-46.4°C0%0hPa0V00:00:0000:00:0000:00:00
KE7DJD2026-09-02 01:05:3841.39170-115.0394758°113km/h13054m-14.3m/s-46.5°C0%0hPa0V00:00:0000:00:0000:00:00
KE7DJD2026-09-02 01:05:1741.38806-115.0456351°108km/h13347m-14.1m/s-44.8°C0%0hPa0V00:00:0000:00:0000:00:00
KE7DJD2026-09-02 01:04:5741.38443-115.0512251°117km/h13623m-13.4m/s-45.9°C0%0hPa0V00:00:0000:00:0000:00:00
KE7DJD2026-09-02 01:04:3641.38087-115.0564146°88km/h13937m-14.8m/s-45.8°C0%0hPa0V00:00:0000:00:0000:00:00
KE7DJD2026-09-02 01:04:1541.37752-115.0608744°91km/h14248m-15.5m/s-46.5°C0%0hPa0V00:00:0000:00:0000:00:00
KE7DJD2026-09-02 01:03:5541.37369-115.0651439°91km/h14582m-17.2m/s-47.3°C0%0hPa0V00:00:0000:00:0000:00:00
KE7DJD2026-09-02 01:03:3441.36949-115.0693444°108km/h14920m-15.9m/s-48.8°C0%0hPa0V00:00:0000:00:0000:00:00
KE7DJD2026-09-02 01:03:1241.36598-115.0739637°88km/h15252m-15.3m/s-49.4°C0%0hPa0V00:00:0000:00:0000:00:00
KE7DJD2026-09-02 01:02:5141.36205-115.0784550°97km/h15616m-17.8m/s-50.8°C0%0hPa0V00:00:0000:00:0000:00:00
KE7DJD2026-09-02 01:02:2841.35889-115.0835250°78km/h15997m-14.8m/s-50.5°C0%0hPa0V00:00:0000:00:0000:00:00
KE7DJD2026-09-02 01:02:0841.35651-115.0869941°57km/h16365m-19.5m/s-49.5°C0%0hPa0V00:00:0000:00:0000:00:00
KE7DJD2026-09-02 01:01:4741.35361-115.0892428°80km/h16708m-17.9m/s-51.2°C0%0hPa0V00:00:0000:00:0000:00:00
KE7DJD2026-09-02 01:01:0741.34698-115.0931930°69km/h17510m-19.8m/s-51.0°C0%0hPa0V00:00:0000:00:0000:00:00
KE7DJD2026-09-02 01:00:4541.34430-115.0956345°51km/h17949m-20.1m/s-52.2°C0%0hPa0V00:00:0000:00:0000:00:00
KE7DJD2026-09-02 01:00:2541.34274-115.0976640°31km/h18353m-18.6m/s-52.8°C0%0hPa0V00:00:0000:00:0000:00:00
KE7DJD2026-09-02 01:00:0341.34130-115.0994446°49km/h18728m-20.2m/s-50.4°C0%0hPa0V00:00:0000:00:0000:00:00
KE7DJD2026-09-02 00:59:4341.34026-115.1017162°27km/h19113m-19.8m/s-47.6°C0%0hPa0V00:00:0000:00:0000:00:00
KE7DJD2026-09-02 00:59:2341.33958-115.1032742°27km/h19502m-19.3m/s-49.2°C0%0hPa0V00:00:0000:00:0000:00:00
KE7DJD2026-09-02 00:58:4241.33671-115.1049766°42km/h20399m-21.2m/s-50.8°C0%0hPa0V00:00:0000:00:0000:00:00
KE7DJD2026-09-02 00:58:2141.33651-115.1059910°9km/h20819m-20.9m/s-48.4°C0%0hPa0V00:00:0000:00:0000:00:00
KE7DJD2026-09-02 00:57:5941.33589-115.1059544°20km/h21286m-20.5m/s-49.3°C0%0hPa0V00:00:0000:00:0000:00:00
KE7DJD2026-09-02 00:57:3841.33572-115.1072087°16km/h21779m-18.7m/s-47.3°C0%0hPa0V00:00:0000:00:0000:00:00
KE7DJD2026-09-02 00:57:1841.33542-115.10708326°18km/h22259m-19.9m/s-48.1°C0%0hPa0V00:00:0000:00:0000:00:00
KE7DJD2026-09-02 00:56:5741.33528-115.10651301°15km/h22748m-28.4m/s-48.2°C0%0hPa0V00:00:0000:00:0000:00:00
KE7DJD2026-09-02 00:56:3641.33497-115.1060363°2km/h23290m-27.1m/s-47.7°C0%0hPa0V00:00:0000:00:0000:00:00
KE7DJD2026-09-02 00:56:1641.33510-115.10603201°15km/h23796m-23.4m/s-46.4°C0%0hPa0V00:00:0000:00:0000:00:00
KE7DJD2026-09-02 00:55:5641.33562-115.10535211°20km/h24273m-20.6m/s-45.7°C0%0hPa0V00:00:0000:00:0000:00:00
KE7DJD2026-09-02 00:55:3541.33594-115.10388246°15km/h24803m-26.3m/s-44.5°C0%0hPa0V00:00:0000:00:0000:00:00
KE7DJD2026-09-02 00:55:1341.33662-115.10233250°35km/h25344m-25.0m/s-44.0°C0%0hPa0V00:00:0000:00:0000:00:00
KE7DJD2026-09-02 00:54:5441.33663-115.101080km/h25851m-25.4m/s-44.0°C0%0hPa0V00:00:0000:00:0000:00:00
KE7DJD2026-09-02 00:54:3241.33676-115.10076241°13km/h26427m-30.2m/s-41.4°C0%0hPa0V00:00:0000:00:0000:00:00
KE7DJD2026-09-02 00:54:1241.33694-115.10014232°13km/h27155m-37.4m/s-39.6°C0%0hPa0V00:00:0000:00:0000:00:00
KE7DJD2026-09-02 00:53:5141.33719-115.09908275°7km/h27788m-31.8m/s-40.6°C0%0hPa0V00:00:0000:00:0000:00:00
KE7DJD2026-09-02 00:53:3141.33709-115.09898131°5km/h28453m-30.2m/s-39.5°C0%0hPa0V00:00:0000:00:0000:00:00
KE7DJD2026-09-02 00:53:1141.33684-115.09878210°13km/h29061m-30.5m/s-38.5°C0%0hPa0V00:00:0000:00:0000:00:00
KE7DJD2026-09-02 00:52:5041.33683-115.0981512°13km/h29753m-36.9m/s-37.9°C0%0hPa0V00:00:0000:00:0000:00:00
KE7DJD2026-09-02 00:52:3041.33701-115.09796234°11km/h30486m-43.2m/s-37.2°C0%0hPa0V00:00:0000:00:0000:00:00
KE7DJD2026-09-02 00:51:4741.33929-115.09793134°20km/h31944m-24.6m/s-34.9°C0%0hPa0V00:00:0000:00:0000:00:00
KE7DJD2026-09-02 00:51:2541.34117-115.09779160°73km/h32472m4.9m/s0°C0%0hPa0V00:00:0000:00:0000:00:00
KE7DJD2026-09-02 00:50:4641.34462-115.09785188°33km/h32254m7.1m/s-34.4°C0%0hPa0V00:00:0000:00:0000:00:00
KE7DJD2026-09-02 00:50:2541.34594-115.09769217°22km/h32129m5.4m/s-35.2°C0%0hPa0V00:00:0000:00:0000:00:00
KE7DJD2026-09-02 00:50:0441.34708-115.09755165°40km/h32015m5.5m/s-35.2°C0%0hPa0V00:00:0000:00:0000:00:00
KE7DJD2026-09-02 00:49:4441.34854-115.09675224°31km/h31893m5.3m/s-35.4°C0%0hPa0V00:00:0000:00:0000:00:00
KE7DJD2026-09-02 00:49:2441.35015-115.09592244°29km/h31777m4.5m/s-35.5°C0%0hPa0V00:00:0000:00:0000:00:00
KE7DJD2026-09-02 00:49:0341.35195-115.09582173°26km/h31647m6.2m/s-36.1°C0%0hPa0V00:00:0000:00:0000:00:00
KE7DJD2026-09-02 00:48:4241.35330-115.09599207°27km/h31523m5.8m/s-36.5°C0%0hPa0V00:00:0000:00:0000:00:00
KE7DJD2026-09-02 00:48:2241.35396-115.09612119°26km/h31393m6.0m/s-36.0°C0%0hPa0V00:00:0000:00:0000:00:00
KE7DJD2026-09-02 00:48:0041.35447-115.09662180°15km/h31262m6.1m/s-36.8°C0%0hPa0V00:00:0000:00:0000:00:00
KE7DJD2026-09-02 00:47:4041.35510-115.09678201°16km/h31140m5.9m/s-37.2°C0%0hPa0V00:00:0000:00:0000:00:00
KE7DJD2026-09-02 00:46:5941.35572-115.09740116°4km/h30885m6.0m/s-36.8°C0%0hPa0V00:00:0000:00:0000:00:00
KE7DJD2026-09-02 00:46:3841.35603-115.09798147°16km/h30760m4.2m/s-37.1°C0%0hPa0V00:00:0000:00:0000:00:00
KE7DJD2026-09-02 00:46:1841.35593-115.0978715km/h30638m3.8m/s-37.1°C0%0hPa0V00:00:0000:00:0000:00:00
KE7DJD2026-09-02 00:45:5841.35624-115.09734331°2km/h30514m6.1m/s-37.2°C0%0hPa0V00:00:0000:00:0000:00:00
KE7DJD2026-09-02 00:45:3741.35634-115.09642266°37km/h30397m4.3m/s-37.1°C0%0hPa0V00:00:0000:00:0000:00:00
KE7DJD2026-09-02 00:45:1641.35653-115.09546228°33km/h30276m4.7m/s-37.2°C0%0hPa0V00:00:0000:00:0000:00:00
KE7DJD2026-09-02 00:44:5741.35651-115.09527306°24km/h30163m7.1m/s-37.6°C0%0hPa0V00:00:0000:00:0000:00:00
KE7DJD2026-09-02 00:44:3641.35639-115.09485141°24km/h30043m4.9m/s-37.8°C0%0hPa0V00:00:0000:00:0000:00:00
KE7DJD2026-09-02 00:44:1541.35586-115.0945320km/h29927m6.5m/s-37.3°C0%0hPa0V00:00:0000:00:0000:00:00
KE7DJD2026-09-02 00:43:5541.35527-115.09451325°15km/h29803m6.8m/s-37.0°C0%0hPa0V00:00:0000:00:0000:00:00
KE7DJD2026-09-02 00:43:3441.35485-115.09392347°11km/h29681m5.7m/s-37.3°C0%0hPa0V00:00:0000:00:0000:00:00
KE7DJD2026-09-02 00:43:1441.35457-115.09322326°9km/h29552m7.5m/s-38.3°C0%0hPa0V00:00:0000:00:0000:00:00
KE7DJD2026-09-02 00:42:5241.35486-115.09267241°29km/h29423m3.8m/s-38.2°C0%0hPa0V00:00:0000:00:0000:00:00
KE7DJD2026-09-02 00:42:3141.35534-115.09184238°18km/h29298m4.5m/s-38.4°C0%0hPa0V00:00:0000:00:0000:00:00
KE7DJD2026-09-02 00:42:1141.35622-115.09129275°13km/h29169m6.2m/s-38.2°C0%0hPa0V00:00:0000:00:0000:00:00
KE7DJD2026-09-02 00:41:0841.35671-115.0912467°22km/h28800m4.8m/s-38.7°C0%0hPa0V00:00:0000:00:0000:00:00
KE7DJD2026-09-02 00:40:4741.35637-115.09090264°5km/h28677m5.4m/s-38.9°C0%0hPa0V00:00:0000:00:0000:00:00
KE7DJD2026-09-02 00:40:2741.35621-115.09068167°7km/h28561m6.5m/s-39.3°C0%0hPa0V00:00:0000:00:0000:00:00
KE7DJD2026-09-02 00:40:0641.35612-115.09121311°11km/h28438m5.5m/s-39.4°C0%0hPa0V00:00:0000:00:0000:00:00
KE7DJD2026-09-02 00:39:4641.35621-115.09125235°16km/h28320m4.3m/s-39.3°C0%0hPa0V00:00:0000:00:0000:00:00
KE7DJD2026-09-02 00:39:2641.35619-115.09075263°9km/h28194m6.5m/s-39.7°C0%0hPa0V00:00:0000:00:0000:00:00
KE7DJD2026-09-02 00:39:0541.35605-115.09029257°5km/h28078m6.4m/s-40.0°C0%0hPa0V00:00:0000:00:0000:00:00
KE7DJD2026-09-02 00:38:4441.35567-115.08986226°18km/h27957m5.8m/s-40.0°C0%0hPa0V00:00:0000:00:0000:00:00
KE7DJD2026-09-02 00:38:2441.35559-115.08932309°24km/h27843m5.2m/s-40.2°C0%0hPa0V00:00:0000:00:0000:00:00
KE7DJD2026-09-02 00:38:0441.35570-115.08887300°22km/h27724m5.2m/s-40.1°C0%0hPa0V00:00:0000:00:0000:00:00
KE7DJD2026-09-02 00:37:4341.35588-115.08788257°7km/h27611m6.6m/s-40.2°C0%0hPa0V00:00:0000:00:0000:00:00
KE7DJD2026-09-02 00:37:2341.35608-115.08659225°29km/h27493m4.3m/s-40.3°C0%0hPa0V00:00:0000:00:0000:00:00
KE7DJD2026-09-02 00:37:0241.35644-115.08529231°22km/h27384m4.5m/s-40.6°C0%0hPa0V00:00:0000:00:0000:00:00
KE7DJD2026-09-02 00:36:4241.35685-115.08474239°13km/h27270m5.3m/s-40.9°C0%0hPa0V00:00:0000:00:0000:00:00
KE7DJD2026-09-02 00:36:2141.35680-115.08462312°11km/h27160m6.4m/s-41.4°C0%0hPa0V00:00:0000:00:0000:00:00
KE7DJD2026-09-02 00:35:5941.35684-115.0839528°4km/h27044m4.4m/s-41.6°C0%0hPa0V00:00:0000:00:0000:00:00
KE7DJD2026-09-02 00:35:3941.35717-115.08289295°20km/h26933m4.6m/s-41.9°C0%0hPa0V00:00:0000:00:0000:00:00
KE7DJD2026-09-02 00:35:1841.35722-115.08189280°37km/h26818m3.4m/s-42.1°C0%0hPa0V00:00:0000:00:0000:00:00
KE7DJD2026-09-02 00:34:5741.35721-115.08084258°4km/h26701m5.7m/s-42.2°C0%0hPa0V00:00:0000:00:0000:00:00
KE7DJD2026-09-02 00:34:3641.35736-115.08019223°11km/h26586m4.4m/s-42.5°C0%0hPa0V00:00:0000:00:0000:00:00
KE7DJD2026-09-02 00:34:1541.35761-115.07947259°4km/h26465m4.8m/s-42.7°C0%0hPa0V00:00:0000:00:0000:00:00
KE7DJD2026-09-02 00:33:5541.35738-115.07925317°15km/h26349m5.8m/s-42.7°C0%0hPa0V00:00:0000:00:0000:00:00
KE7DJD2026-09-02 00:33:3441.35718-115.07874298°11km/h26224m4.4m/s-42.9°C0%0hPa0V00:00:0000:00:0000:00:00
KE7DJD2026-09-02 00:33:1441.35704-115.07795254°16km/h26109m3.1m/s-43.1°C0%0hPa0V00:00:0000:00:0000:00:00
KE7DJD2026-09-02 00:32:5441.35713-115.07719293°18km/h25991m5.9m/s-43.3°C0%0hPa0V00:00:0000:00:0000:00:00
KE7DJD2026-09-02 00:32:3341.35683-115.07683313°26km/h25881m8.0m/s-43.8°C0%0hPa0V00:00:0000:00:0000:00:00
KE7DJD2026-09-02 00:32:1341.35610-115.07588320°24km/h25764m6.7m/s-43.9°C0%0hPa0V00:00:0000:00:0000:00:00
KE7DJD2026-09-02 00:31:5241.35553-115.07449274°26km/h25654m7.4m/s-44.1°C0%0hPa0V00:00:0000:00:0000:00:00
KE7DJD2026-09-02 00:31:3241.35544-115.07322252°18km/h25539m7.0m/s-44.2°C0%0hPa0V00:00:0000:00:0000:00:00
KE7DJD2026-09-02 00:31:1141.35588-115.07167248°18km/h25427m4.2m/s-43.9°C0%0hPa0V00:00:0000:00:0000:00:00
KE7DJD2026-09-02 00:30:5141.35673-115.06999240°22km/h25310m6.1m/s-43.3°C0%0hPa0V00:00:0000:00:0000:00:00
KE7DJD2026-09-02 00:30:3041.35767-115.06853239°24km/h25199m6.1m/s-42.9°C0%0hPa0V00:00:0000:00:0000:00:00
KE7DJD2026-09-02 00:30:1041.35845-115.06714238°26km/h25085m5.8m/s-42.8°C0%0hPa0V00:00:0000:00:0000:00:00
KE7DJD2026-09-02 00:29:4841.35924-115.06592245°16km/h24971m6.8m/s-43.4°C0%0hPa0V00:00:0000:00:0000:00:00
KE7DJD2026-09-02 00:29:2841.36003-115.06551245°15km/h24858m4.6m/s-43.3°C0%0hPa0V00:00:0000:00:0000:00:00
KE7DJD2026-09-02 00:29:0741.36053-115.06495296°7km/h24743m4.8m/s-43.4°C0%0hPa0V00:00:0000:00:0000:00:00
KE7DJD2026-09-02 00:28:4741.36054-115.06380264°16km/h24637m6.3m/s-43.5°C0%0hPa0V00:00:0000:00:0000:00:00
KE7DJD2026-09-02 00:28:2741.36070-115.06238248°18km/h24525m5.2m/s-43.2°C0%0hPa0V00:00:0000:00:0000:00:00
KE7DJD2026-09-02 00:28:0641.36153-115.06130202°38km/h24413m4.6m/s-43.9°C0%0hPa0V00:00:0000:00:0000:00:00
KE7DJD2026-09-02 00:27:4641.36275-115.06035193°24km/h24299m4.6m/s-45.1°C0%0hPa0V00:00:0000:00:0000:00:00
KE7DJD2026-09-02 00:27:2541.36370-115.06029188°15km/h24187m6.5m/s-45.3°C0%0hPa0V00:00:0000:00:0000:00:00
KE7DJD2026-09-02 00:27:0441.36413-115.05984220°13km/h24066m6.3m/s-45.5°C0%0hPa0V00:00:0000:00:0000:00:00
KE7DJD2026-09-02 00:26:4441.36437-115.05927242°22km/h23951m6.4m/s-45.8°C0%0hPa0V00:00:0000:00:0000:00:00
KE7DJD2026-09-02 00:26:2441.36498-115.05853212°15km/h23835m3.7m/s-46.1°C0%0hPa0V00:00:0000:00:0000:00:00
KE7DJD2026-09-02 00:26:0341.36547-115.05845228°7km/h23726m3.4m/s-45.9°C0%0hPa0V00:00:0000:00:0000:00:00
KE7DJD2026-09-02 00:25:4341.36555-115.0584562°15km/h23609m3.7m/s-46.1°C0%0hPa0V00:00:0000:00:0000:00:00
KE7DJD2026-09-02 00:25:2241.36519-115.05824213°4km/h23492m5.9m/s-46.0°C0%0hPa0V00:00:0000:00:0000:00:00
KE7DJD2026-09-02 00:24:4141.36465-115.0578924km/h23277m4.9m/s-47.9°C0%0hPa0V00:00:0000:00:0000:00:00
KE7DJD2026-09-02 00:24:2141.36408-115.05725332°20km/h23166m4.9m/s-47.6°C0%0hPa0V00:00:0000:00:0000:00:00
KE7DJD2026-09-02 00:23:5941.36359-115.05666318°16km/h23055m4.0m/s-47.2°C0%0hPa0V00:00:0000:00:0000:00:00
KE7DJD2026-09-02 00:23:3941.36324-115.05573308°18km/h22947m6.4m/s-47.9°C0%0hPa0V00:00:0000:00:0000:00:00
KE7DJD2026-09-02 00:23:1941.36259-115.05500333°7km/h22845m5.7m/s-48.6°C0%0hPa0V00:00:0000:00:0000:00:00
KE7DJD2026-09-02 00:22:5841.36240-115.05431232°18km/h22743m6.2m/s-48.1°C0%0hPa0V00:00:0000:00:0000:00:00
KE7DJD2026-09-02 00:22:3741.36288-115.05394183°29km/h22631m3.8m/s-48.3°C0%0hPa0V00:00:0000:00:0000:00:00
KE7DJD2026-09-02 00:22:1741.36348-115.05392213°13km/h22524m3.5m/s-48.2°C0%0hPa0V00:00:0000:00:0000:00:00
KE7DJD2026-09-02 00:21:5741.36390-115.053737km/h22413m4.4m/s-48.1°C0%0hPa0V00:00:0000:00:0000:00:00
KE7DJD2026-09-02 00:21:3641.36394-115.05316342°13km/h22307m4.5m/s-47.9°C0%0hPa0V00:00:0000:00:0000:00:00
KE7DJD2026-09-02 00:21:1541.36380-115.05266319°7km/h22200m6.0m/s-47.6°C0%0hPa0V00:00:0000:00:0000:00:00
KE7DJD2026-09-02 00:20:5541.36402-115.05284190°4km/h22096m3.6m/s-47.7°C0%0hPa0V00:00:0000:00:0000:00:00
KE7DJD2026-09-02 00:20:3341.36444-115.0533084°15km/h21996m6.5m/s-47.7°C0%0hPa0V00:00:0000:00:0000:00:00
KE7DJD2026-09-02 00:20:1341.36466-115.05431102°31km/h21892m4.4m/s-48.1°C0%0hPa0V00:00:0000:00:0000:00:00
KE7DJD2026-09-02 00:19:5241.36474-115.05550123°22km/h21784m4.6m/s-47.8°C0%0hPa0V00:00:0000:00:0000:00:00
KE7DJD2026-09-02 00:19:3141.36514-115.0568584°31km/h21683m4.4m/s-48.6°C0%0hPa0V00:00:0000:00:0000:00:00
KE7DJD2026-09-02 00:19:1141.36479-115.0588085°35km/h21574m5.6m/s-49.8°C0%0hPa0V00:00:0000:00:0000:00:00
KE7DJD2026-09-02 00:18:5041.36403-115.0603153°26km/h21468m6.9m/s-50.1°C0%0hPa0V00:00:0000:00:0000:00:00
KE7DJD2026-09-02 00:18:3041.36319-115.0613420°16km/h21352m3.9m/s-49.7°C0%0hPa0V00:00:0000:00:0000:00:00
KE7DJD2026-09-02 00:18:1041.36236-115.0617137°16km/h21249m4.7m/s-49.3°C0%0hPa0V00:00:0000:00:0000:00:00
KE7DJD2026-09-02 00:17:4941.36176-115.06184306°13km/h21139m4.0m/s-49.0°C0%0hPa0V00:00:0000:00:0000:00:00
KE7DJD2026-09-02 00:17:2741.36137-115.061427km/h21030m4.0m/s-48.8°C0%0hPa0V00:00:0000:00:0000:00:00
KE7DJD2026-09-02 00:17:0641.36094-115.0612951°11km/h20923m6.0m/s-48.7°C0%0hPa0V00:00:0000:00:0000:00:00
KE7DJD2026-09-02 00:16:4641.36056-115.0616899°24km/h20815m5.2m/s-49.0°C0%0hPa0V00:00:0000:00:0000:00:00
KE7DJD2026-09-02 00:16:2541.36055-115.0626383°26km/h20709m4.9m/s-50.0°C0%0hPa0V00:00:0000:00:0000:00:00
KE7DJD2026-09-02 00:16:0441.36074-115.06403113°27km/h20601m4.5m/s-49.6°C0%0hPa0V00:00:0000:00:0000:00:00
KE7DJD2026-09-02 00:15:4341.36084-115.0659087°31km/h20496m6.5m/s-49.4°C0%0hPa0V00:00:0000:00:0000:00:00
KE7DJD2026-09-02 00:15:2241.36054-115.0684064°31km/h20380m6.5m/s-49.8°C0%0hPa0V00:00:0000:00:0000:00:00
KE7DJD2026-09-02 00:15:0241.35925-115.0705840°40km/h20262m5.3m/s-49.4°C0%0hPa0V00:00:0000:00:0000:00:00
KE7DJD2026-09-02 00:14:4241.35760-115.0722635°38km/h20153m6.0m/s-48.7°C0%0hPa0V00:00:0000:00:0000:00:00
KE7DJD2026-09-02 00:14:2141.35567-115.0737119°35km/h20050m3.7m/s-48.3°C0%0hPa0V00:00:0000:00:0000:00:00
KE7DJD2026-09-02 00:14:0141.35369-115.0746419°33km/h19950m4.8m/s-48.0°C0%0hPa0V00:00:0000:00:0000:00:00
KE7DJD2026-09-02 00:13:4041.35206-115.07469355°33km/h19858m2.7m/s-48.0°C0%0hPa0V00:00:0000:00:0000:00:00
KE7DJD2026-09-02 00:13:2041.35081-115.07462342°24km/h19764m3.6m/s-48.2°C0%0hPa0V00:00:0000:00:0000:00:00
KE7DJD2026-09-02 00:12:5941.35007-115.0748128°11km/h19671m5.4m/s-48.3°C0%0hPa0V00:00:0000:00:0000:00:00
KE7DJD2026-09-02 00:12:3941.34950-115.0754223°15km/h19570m5.0m/s-48.3°C0%0hPa0V00:00:0000:00:0000:00:00
KE7DJD2026-09-02 00:12:1741.34914-115.07625101°4km/h19465m4.3m/s-48.0°C0%0hPa0V00:00:0000:00:0000:00:00
KE7DJD2026-09-02 00:11:5641.34881-115.0774281°18km/h19351m5.5m/s-48.1°C0%0hPa0V00:00:0000:00:0000:00:00
KE7DJD2026-09-02 00:11:3641.34797-115.0789545°27km/h19236m4.6m/s-47.5°C0%0hPa0V00:00:0000:00:0000:00:00
KE7DJD2026-09-02 00:11:1541.34718-115.0805075°29km/h19127m4.5m/s-47.1°C0%0hPa0V00:00:0000:00:0000:00:00
KE7DJD2026-09-02 00:10:3441.34566-115.0837151°31km/h18922m6.1m/s-49.3°C0%0hPa0V00:00:0000:00:0000:00:00
KE7DJD2026-09-02 00:10:1241.34436-115.0852948°38km/h18822m5.1m/s-50.8°C0%0hPa0V00:00:0000:00:0000:00:00
KE7DJD2026-09-02 00:09:5241.34282-115.0866030°35km/h18726m5.5m/s-51.2°C0%0hPa0V00:00:0000:00:0000:00:00
KE7DJD2026-09-02 00:09:3141.34160-115.0881950°29km/h18632m4.8m/s-52.5°C0%0hPa0V00:00:0000:00:0000:00:00
KE7DJD2026-09-02 00:09:1141.34011-115.0899442°42km/h18535m5.9m/s-55.2°C0%0hPa0V00:00:0000:00:0000:00:00
KE7DJD2026-09-02 00:08:5041.33868-115.0917946°42km/h18431m5.4m/s-54.8°C0%0hPa0V00:00:0000:00:0000:00:00
KE7DJD2026-09-02 00:08:3141.33738-115.0934031°33km/h18329m4.6m/s-53.9°C0%0hPa0V00:00:0000:00:0000:00:00
KE7DJD2026-09-02 00:08:1041.33612-115.0950553°40km/h18228m3.9m/s-52.9°C0%0hPa0V00:00:0000:00:0000:00:00
KE7DJD2026-09-02 00:07:4941.33481-115.0965645°31km/h18126m6.0m/s-52.5°C0%0hPa0V00:00:0000:00:0000:00:00
KE7DJD2026-09-02 00:07:2941.33313-115.0978929°47km/h18023m5.6m/s-51.5°C0%0hPa0V00:00:0000:00:0000:00:00
KE7DJD2026-09-02 00:07:0941.33119-115.0994844°42km/h17908m4.8m/s-50.5°C0%0hPa0V00:00:0000:00:0000:00:00
KE7DJD2026-09-02 00:06:4841.32938-115.1012542°47km/h17795m6.8m/s-50.1°C0%0hPa0V00:00:0000:00:0000:00:00
KE7DJD2026-09-02 00:06:2741.32737-115.1032535°57km/h17683m5.1m/s-49.8°C0%0hPa0V00:00:0000:00:0000:00:00
KE7DJD2026-09-02 00:06:0741.32497-115.1052924°55km/h17581m4.7m/s-49.3°C0%0hPa0V00:00:0000:00:0000:00:00
KE7DJD2026-09-02 00:05:4741.32234-115.1073337°66km/h17492m2.7m/s-49.4°C0%0hPa0V00:00:0000:00:0000:00:00
KE7DJD2026-09-02 00:05:2641.31945-115.1096737°71km/h17407m2.8m/s-49.7°C0%0hPa0V00:00:0000:00:0000:00:00
KE7DJD2026-09-02 00:05:0641.31621-115.1122834°75km/h17331m4.6m/s-49.6°C0%0hPa0V00:00:0000:00:0000:00:00
KE7DJD2026-09-02 00:04:4441.31271-115.1150426°66km/h17253m5.5m/s-50.5°C0%0hPa0V00:00:0000:00:0000:00:00
KE7DJD2026-09-02 00:04:2341.30955-115.1172126°66km/h17167m4.5m/s-51.3°C0%0hPa0V00:00:0000:00:0000:00:00
KE7DJD2026-09-02 00:03:4741.30397-115.1218333°77km/h16975m6.0m/s-53.2°C0%0hPa0V00:00:0000:00:0000:00:00
KE7DJD2026-09-02 00:03:2541.30085-115.1239426°69km/h16866m5.5m/s-52.8°C0%0hPa0V00:00:0000:00:0000:00:00
KE7DJD2026-09-02 00:03:1441.29808-115.1257927°60km/h16755m5.8m/s-51.8°C0%0hPa0V00:00:0000:00:0000:00:00
KE7DJD2026-09-02 00:02:4741.29530-115.1275126°57km/h16647m6.0m/s-50.8°C0%0hPa0V00:00:0000:00:0000:00:00
KE7DJD2026-09-02 00:02:2841.29258-115.1290022°55km/h16547m4.9m/s-49.8°C0%0hPa0V00:00:0000:00:0000:00:00
KE7DJD2026-09-02 00:02:0641.28991-115.1307423°58km/h16428m6.8m/s-48.8°C0%0hPa0V00:00:0000:00:0000:00:00
KE7DJD2026-09-02 00:01:4641.28753-115.1326438°47km/h16310m6.2m/s-48.7°C0%0hPa0V00:00:0000:00:0000:00:00
KE7DJD2026-09-02 00:01:2241.28521-115.1349140°66km/h16206m4.6m/s-48.2°C0%0hPa0V00:00:0000:00:0000:00:00
KE7DJD2026-09-02 00:00:5841.28272-115.1377049°58km/h16101m5.3m/s-47.6°C0%0hPa0V00:00:0000:00:0000:00:00
KE7DJD2026-09-02 00:00:3741.28036-115.1409144°66km/h15999m4.0m/s-48.5°C0%0hPa0V00:00:0000:00:0000:00:00
KE7DJD2026-09-02 00:00:2141.27785-115.1446449°86km/h15904m5.4m/s-48.8°C0%0hPa0V00:00:0000:00:0000:00:00
KE7DJD2026-09-01 23:59:5541.27520-115.1493255°95km/h15819m3.1m/s-49.6°C0%0hPa0V00:00:0000:00:0000:00:00
KE7DJD2026-09-01 23:59:3541.27203-115.1548353°99km/h15741m2.0m/s-49.5°C0%0hPa0V00:00:0000:00:0000:00:00
KE7DJD2026-09-01 23:59:1441.26860-115.1602753°106km/h15676m2.5m/s-50.0°C0%0hPa0V00:00:0000:00:0000:00:00
KE7DJD2026-09-01 23:58:5441.26498-115.1663453°111km/h15611m3.7m/s-50.1°C0%0hPa0V00:00:0000:00:0000:00:00
KE7DJD2026-09-01 23:58:3441.26153-115.1719750°115km/h15550m1.3m/s-50.6°C0%0hPa0V00:00:0000:00:0000:00:00
KE7DJD2026-09-01 23:58:1341.25773-115.1775346°104km/h15485m2.2m/s-50.1°C0%0hPa0V00:00:0000:00:0000:00:00
KE7DJD2026-09-01 23:57:5141.25378-115.1826647°99km/h15415m2.7m/s-49.9°C0%0hPa0V00:00:0000:00:0000:00:00
KE7DJD2026-09-01 23:57:3041.24983-115.1871744°84km/h15334m3.7m/s-50.5°C0%0hPa0V00:00:0000:00:0000:00:00
KE7DJD2026-09-01 23:57:1041.24603-115.1913839°91km/h15252m2.9m/s-50.1°C0%0hPa0V00:00:0000:00:0000:00:00
KE7DJD2026-09-01 23:56:4941.24238-115.1959845°97km/h15163m3.0m/s-50.0°C0%0hPa0V00:00:0000:00:0000:00:00
KE7DJD2026-09-01 23:56:2741.23861-115.2010746°106km/h15070m5.5m/s-50.1°C0%0hPa0V00:00:0000:00:0000:00:00
KE7DJD2026-09-01 23:56:0741.23467-115.2058944°108km/h14975m3.6m/s-49.5°C0%0hPa0V00:00:0000:00:0000:00:00
KE7DJD2026-09-01 23:55:4741.23042-115.2106441°99km/h14875m5.1m/s-48.9°C0%0hPa0V00:00:0000:00:0000:00:00
KE7DJD2026-09-01 23:55:2641.22639-115.2149739°97km/h14772m4.4m/s-48.2°C0%0hPa0V00:00:0000:00:0000:00:00
KE7DJD2026-09-01 23:55:0641.22286-115.2187945°82km/h14676m4.8m/s-47.8°C0%0hPa0V00:00:0000:00:0000:00:00
KE7DJD2026-09-01 23:54:4541.21951-115.2228848°99km/h14579m4.0m/s-47.6°C0%0hPa0V00:00:0000:00:0000:00:00
KE7DJD2026-09-01 23:54:0441.21291-115.2314650°89km/h14387m3.2m/s-47.2°C0%0hPa0V00:00:0000:00:0000:00:00
KE7DJD2026-09-01 23:53:4441.20956-115.2361247°93km/h14297m3.8m/s-47.3°C0%0hPa0V00:00:0000:00:0000:00:00
KE7DJD2026-09-01 23:53:2341.20640-115.2410951°93km/h14218m4.6m/s-46.8°C0%0hPa0V00:00:0000:00:0000:00:00
KE7DJD2026-09-01 23:53:0341.20338-115.2465157°95km/h14140m3.2m/s-46.6°C0%0hPa0V00:00:0000:00:0000:00:00
KE7DJD2026-09-01 23:52:4241.20020-115.2524554°106km/h14068m2.5m/s-46.9°C0%0hPa0V00:00:0000:00:0000:00:00
KE7DJD2026-09-01 23:52:2041.19651-115.2585853°108km/h13997m3.2m/s-46.8°C0%0hPa0V00:00:0000:00:0000:00:00
KE7DJD2026-09-01 23:52:0041.19273-115.2645655°110km/h13926m2.3m/s-46.5°C0%0hPa0V00:00:0000:00:0000:00:00
KE7DJD2026-09-01 23:51:3941.18909-115.2705549°113km/h13858m3.3m/s-46.7°C0%0hPa0V00:00:0000:00:0000:00:00
KE7DJD2026-09-01 23:51:1841.18526-115.2761848°115km/h13788m4.3m/s-46.7°C0%0hPa0V00:00:0000:00:0000:00:00
KE7DJD2026-09-01 23:50:5841.18092-115.2818744°113km/h13708m3.5m/s-46.4°C0%0hPa0V00:00:0000:00:0000:00:00
KE7DJD2026-09-01 23:50:3741.17703-115.2869245°106km/h13628m3.3m/s-46.3°C0%0hPa0V00:00:0000:00:0000:00:00
KE7DJD2026-09-01 23:50:1741.17303-115.2922547°106km/h13542m4.9m/s-46.5°C0%0hPa0V00:00:0000:00:0000:00:00
KE7DJD2026-09-01 23:49:5641.16913-115.2973042°110km/h13455m3.2m/s-46.5°C0%0hPa0V00:00:0000:00:0000:00:00
KE7DJD2026-09-01 23:49:3641.16514-115.3032250°119km/h13356m5.5m/s-47.4°C0%0hPa0V00:00:0000:00:0000:00:00
KE7DJD2026-09-01 23:49:1541.16120-115.3095251°117km/h13255m5.6m/s-47.3°C0%0hPa0V00:00:0000:00:0000:00:00
KE7DJD2026-09-01 23:48:5441.15740-115.3156951°122km/h13152m5.0m/s-46.9°C0%0hPa0V00:00:0000:00:0000:00:00
KE7DJD2026-09-01 23:48:3441.15357-115.3224353°120km/h13045m5.8m/s-46.7°C0%0hPa0V00:00:0000:00:0000:00:00
KE7DJD2026-09-01 23:48:1341.14975-115.3286148°117km/h12947m6.0m/s-47.2°C0%0hPa0V00:00:0000:00:0000:00:00


GPX KML Map

© wettersonde.net (DO2JMG) - 2026  -  -